Portada
METAR-TAF:

METAR-TAF

Aeroports :

Berlevåg, Noruega

latitud: 70-52N, longitud: 029-02E, altitud: 1 m

Observació

L'informe es va fer fa 12 hores i 51 minuts, a les 06:50 UTC
Vent 22 kt del Oest/Nord-Oest
Temperatura -3°C
Humitat 74%
Pressió 1010 hPa
Visibilitat 10 km o més
Escasses núvols a una alçada de 1500 ft
Cel ennuvolat a una alçada de 2800 ft
xàfecs en les proximitats

METAR: ENBV 300650Z 30022KT 9999 VCSH FEW015 BKN028 M03/M07 Q1010

Hora: 21:41 (19:41 UTC)


TAF: manca

Observacions i pronòstics meteorològics de més de 4000 aeroports (METAR i TAF).

Les estacions disponibles són els punts grocs i vermells al mapa.

Posi el ratolí al punt desitjat per veure el nom de l'estació.

Feu clic per veure les observacions i els pronòstics meteorològics.

Per canviar el mapa: feu clic els botons verds amb una creu de color negre per apropar; al botó verd amb un guió per allunyar la imatge; o en les fletxes verdes per a mapes adjacents.


METAR-TAF: